createdAt,value
2018-08-13T00:01:32.274Z,52.03
2018-08-13T00:04:00.382Z,52.54
2018-08-13T00:06:29.453Z,52.64
2018-08-13T00:08:57.671Z,52.77
2018-08-13T00:11:26.398Z,52.58
2018-08-13T00:13:54.697Z,52.16
2018-08-13T00:16:23.556Z,51.92
2018-08-13T00:18:51.794Z,52.17
2018-08-13T00:21:20.123Z,51.79
2018-08-13T00:23:48.512Z,51.56
2018-08-13T00:26:16.666Z,52.13
2018-08-13T00:28:45.139Z,52.28
2018-08-13T00:31:13.359Z,51.57
2018-08-13T00:33:42.214Z,51.44
2018-08-13T00:36:10.688Z,52.17
2018-08-13T00:38:39.263Z,52.67
2018-08-13T00:41:07.697Z,52.82
2018-08-13T00:43:36.141Z,53.32
2018-08-13T00:46:05.048Z,53.43
2018-08-13T00:48:33.244Z,53.58
2018-08-13T00:51:01.456Z,53.44
2018-08-13T00:53:30.047Z,53.40
2018-08-13T00:55:58.567Z,53.29
2018-08-13T00:58:26.866Z,53.13
2018-08-13T01:00:55.349Z,53.61
2018-08-13T01:03:23.780Z,54.36
2018-08-13T01:05:52.306Z,54.55
2018-08-13T01:08:20.818Z,54.40
2018-08-13T01:10:48.979Z,54.43
2018-08-13T01:13:17.136Z,54.62
2018-08-13T01:15:45.652Z,54.95
2018-08-13T01:18:13.825Z,54.60
2018-08-13T01:20:42.314Z,54.50
2018-08-13T01:23:10.568Z,54.70
2018-08-13T01:25:38.976Z,54.83
2018-08-13T01:28:07.488Z,54.38
2018-08-13T01:30:35.928Z,54.12
2018-08-13T01:33:04.416Z,54.30
2018-08-13T01:35:32.597Z,54.03
2018-08-13T01:38:00.785Z,53.98
2018-08-13T01:40:29.435Z,53.74
2018-08-13T01:42:57.716Z,54.33
2018-08-13T01:45:26.168Z,54.07
2018-08-13T01:47:54.409Z,54.31
2018-08-13T01:50:22.548Z,54.18
2018-08-13T01:52:51.028Z,54.89
2018-08-13T01:55:19.495Z,55.16
2018-08-13T01:57:47.656Z,55.19
2018-08-13T02:00:16.526Z,54.89
2018-08-13T02:02:44.677Z,55.11
2018-08-13T02:05:12.833Z,54.65
2018-08-13T02:07:41.929Z,55.01
2018-08-13T02:10:12.521Z,54.97
2018-08-13T02:12:41.204Z,55.48
2018-08-13T02:15:09.950Z,55.09
2018-08-13T02:17:38.722Z,55.43
2018-08-13T02:20:08.722Z,55.65
2018-08-13T02:22:37.722Z,55.94
2018-08-13T02:25:07.167Z,56.47
2018-08-13T02:27:35.636Z,56.41
2018-08-13T02:30:06.932Z,56.18
2018-08-13T02:32:35.464Z,56.29
2018-08-13T02:35:05.808Z,56.77
2018-08-13T02:37:34.421Z,56.81
2018-08-13T02:40:02.735Z,56.34
2018-08-13T02:42:30.904Z,56.02
2018-08-13T02:45:06.174Z,56.38
2018-08-13T02:47:34.360Z,56.01
2018-08-13T02:50:03.308Z,55.68
2018-08-13T02:52:31.508Z,55.59
2018-08-13T02:55:00.474Z,55.26
2018-08-13T02:57:28.904Z,56.05
2018-08-13T02:59:57.729Z,56.25
2018-08-13T03:02:26.192Z,56.44
2018-08-13T03:04:54.901Z,55.76
2018-08-13T03:07:23.685Z,56.16
2018-08-13T03:09:52.174Z,56.58
2018-08-13T03:12:20.659Z,56.93
2018-08-13T03:14:48.863Z,57.20
2018-08-13T03:17:30.403Z,57.58
2018-08-13T03:19:59.557Z,57.05
2018-08-13T03:22:28.876Z,57.37
2018-08-13T03:24:58.068Z,57.57
2018-08-13T03:27:26.449Z,57.39
2018-08-13T03:29:54.667Z,57.78
2018-08-13T03:32:29.699Z,57.53
2018-08-13T03:34:58.283Z,57.63
2018-08-13T03:37:26.870Z,57.89
2018-08-13T03:39:56.036Z,57.73
2018-08-13T03:42:25.107Z,57.45
2018-08-13T03:44:53.584Z,57.28
2018-08-13T03:47:21.769Z,57.60
2018-08-13T03:49:50.169Z,57.25
2018-08-13T03:52:18.641Z,57.33
2018-08-13T03:54:47.185Z,57.86
2018-08-13T03:57:15.357Z,57.70
2018-08-13T03:59:43.573Z,57.21
2018-08-13T04:02:11.782Z,57.74
2018-08-13T04:04:40.465Z,57.92
2018-08-13T04:07:08.698Z,57.56
2018-08-13T04:09:37.440Z,57.06
2018-08-13T04:12:06.082Z,57.33
2018-08-13T04:14:34.320Z,57.52
2018-08-13T04:17:03.068Z,57.81
2018-08-13T04:19:32.886Z,57.81
2018-08-13T04:22:01.729Z,57.30
2018-08-13T04:24:30.113Z,57.30
2018-08-13T04:26:59.281Z,57.56
2018-08-13T04:29:27.456Z,57.25
2018-08-13T04:31:55.944Z,57.06
2018-08-13T04:34:24.697Z,57.26
2018-08-13T04:36:52.868Z,57.46
2018-08-13T04:39:21.554Z,57.90
2018-08-13T04:41:49.763Z,57.90
2018-08-13T04:44:17.936Z,57.66
2018-08-13T04:46:47.464Z,57.55
2018-08-13T04:49:15.992Z,57.21
2018-08-13T04:51:44.474Z,56.82
2018-08-13T04:54:13.702Z,56.93
2018-08-13T04:56:41.977Z,56.94
2018-08-13T04:59:10.432Z,56.42
2018-08-13T05:01:38.634Z,56.67
2018-08-13T05:04:06.830Z,56.53
2018-08-13T05:06:35.281Z,56.31
2018-08-13T05:09:05.294Z,56.31
2018-08-13T05:11:33.748Z,56.33
2018-08-13T05:14:02.147Z,56.03
2018-08-13T05:16:30.367Z,53.48
2018-08-13T05:18:58.893Z,52.12
2018-08-13T05:21:27.129Z,50.50
2018-08-13T05:23:55.607Z,49.80
2018-08-13T05:26:23.793Z,48.86
2018-08-13T05:28:52.600Z,48.51
2018-08-13T05:31:21.260Z,48.50
2018-08-13T05:33:49.484Z,48.70
2018-08-13T05:36:18.521Z,49.33
2018-08-13T05:38:47.044Z,49.09
2018-08-13T05:41:15.294Z,48.98
2018-08-13T05:43:43.569Z,48.67
2018-08-13T05:46:12.073Z,48.80
2018-08-13T05:48:40.519Z,45.48
2018-08-13T05:51:08.724Z,44.75
2018-08-13T05:53:36.892Z,45.14
2018-08-13T05:56:05.082Z,44.91
2018-08-13T05:58:33.625Z,45.20
2018-08-13T06:01:02.153Z,46.44
2018-08-13T06:03:30.725Z,46.35
2018-08-13T06:05:58.919Z,45.77
2018-08-13T06:08:27.279Z,45.23
2018-08-13T06:10:55.759Z,44.98
2018-08-13T06:13:23.968Z,44.59
2018-08-13T06:15:52.446Z,44.41
2018-08-13T06:18:20.741Z,44.33
2018-08-13T06:20:49.388Z,44.04
2018-08-13T06:23:18.267Z,44.17
2018-08-13T06:25:46.447Z,43.81
2018-08-13T06:28:14.713Z,43.38
2018-08-13T06:30:42.933Z,43.81
2018-08-13T06:33:11.253Z,43.47
2018-08-13T06:35:39.454Z,43.65
2018-08-13T06:38:10.904Z,43.76
2018-08-13T06:40:39.106Z,43.40
2018-08-13T06:43:07.348Z,43.16
2018-08-13T06:45:35.546Z,44.12
2018-08-13T06:48:03.828Z,43.82
2018-08-13T06:50:32.904Z,44.62
2018-08-13T06:53:01.098Z,44.77
2018-08-13T06:55:29.705Z,43.99
2018-08-13T06:57:57.942Z,42.87
2018-08-13T07:00:26.426Z,42.76
2018-08-13T07:02:54.591Z,41.12
2018-08-13T07:05:22.867Z,40.55
2018-08-13T07:07:51.361Z,40.00
2018-08-13T07:10:19.647Z,40.16
2018-08-13T07:12:47.928Z,40.22
2018-08-13T07:15:16.636Z,40.40
2018-08-13T07:17:44.914Z,39.72
2018-08-13T07:20:16.205Z,40.02
2018-08-13T07:22:44.716Z,39.89
2018-08-13T07:25:13.301Z,39.21
2018-08-13T07:27:42.009Z,39.72
2018-08-13T07:30:12.588Z,39.54
2018-08-13T07:32:41.158Z,39.30
2018-08-13T07:35:09.694Z,39.70
2018-08-13T07:37:38.261Z,39.79
2018-08-13T07:40:13.220Z,40.23
2018-08-13T07:42:41.745Z,40.38
2018-08-13T07:45:10.344Z,40.61
2018-08-13T07:47:38.552Z,41.32
2018-08-13T07:50:09.889Z,41.00
2018-08-13T07:52:38.120Z,41.52
2018-08-13T07:55:06.544Z,42.19
2018-08-13T07:57:34.779Z,42.01
2018-08-13T08:00:03.147Z,42.56
2018-08-13T08:02:31.749Z,42.84
2018-08-13T08:04:59.942Z,42.94
2018-08-13T08:07:28.355Z,43.23
2018-08-13T08:09:57.005Z,43.17
2018-08-13T08:12:25.585Z,42.94
2018-08-13T08:14:53.800Z,43.22
2018-08-13T08:17:22.531Z,44.50
2018-08-13T08:19:50.733Z,45.28
2018-08-13T08:22:18.982Z,46.74
2018-08-13T08:24:48.575Z,48.97
2018-08-13T08:27:18.007Z,51.27
2018-08-13T08:29:46.240Z,52.70
2018-08-13T08:32:14.517Z,53.70
2018-08-13T08:34:43.173Z,53.92
2018-08-13T08:37:11.710Z,55.50
2018-08-13T08:39:42.717Z,56.64
2018-08-13T08:42:11.220Z,57.16
2018-08-13T08:44:39.833Z,58.00
2018-08-13T08:47:08.029Z,57.88
2018-08-13T08:49:36.771Z,57.17
2018-08-13T08:52:05.120Z,57.23
2018-08-13T08:54:34.142Z,56.78
2018-08-13T08:57:02.628Z,57.69
2018-08-13T08:59:30.852Z,56.65
2018-08-13T09:01:59.429Z,57.01
2018-08-13T09:04:28.217Z,56.99
2018-08-13T09:06:56.858Z,57.73
2018-08-13T09:09:26.151Z,58.50
2018-08-13T09:11:54.388Z,58.65
2018-08-13T09:14:22.899Z,59.14
2018-08-13T09:16:52.133Z,58.98
2018-08-13T09:19:37.729Z,58.75
2018-08-13T09:22:23.481Z,59.55
2018-08-13T09:25:09.186Z,60.29
2018-08-13T09:27:54.627Z,59.97
2018-08-13T09:30:40.437Z,59.88
2018-08-13T09:33:25.719Z,59.01
2018-08-13T09:35:56.136Z,59.51
2018-08-13T09:38:24.928Z,59.12
2018-08-13T09:40:53.588Z,58.64
2018-08-13T09:43:22.188Z,58.83
2018-08-13T09:45:50.949Z,59.10
2018-08-13T09:48:19.276Z,59.08
2018-08-13T09:50:47.494Z,58.40
2018-08-13T09:53:15.709Z,59.09
2018-08-13T09:55:44.132Z,58.88
2018-08-13T09:58:12.452Z,59.04
2018-08-13T10:00:50.107Z,58.41
2018-08-13T10:03:18.327Z,57.44
2018-08-13T10:05:47.196Z,55.57
2018-08-13T10:08:15.496Z,54.99
2018-08-13T10:10:43.989Z,55.43
2018-08-13T10:13:12.279Z,54.77
2018-08-13T10:15:40.536Z,55.84
2018-08-13T10:18:09.003Z,56.16
2018-08-13T10:20:37.845Z,56.58
2018-08-13T10:23:06.040Z,56.02
2018-08-13T10:25:34.562Z,56.15
2018-08-13T10:28:02.803Z,57.16
2018-08-13T10:30:31.023Z,57.30
2018-08-13T10:32:59.365Z,57.50
2018-08-13T10:35:27.784Z,57.21
2018-08-13T10:37:56.249Z,57.21
2018-08-13T10:40:24.637Z,57.60
2018-08-13T10:42:53.596Z,56.73
2018-08-13T10:45:21.889Z,56.50
2018-08-13T10:47:50.107Z,56.07
2018-08-13T10:50:18.668Z,55.98
2018-08-13T10:52:47.158Z,56.16
2018-08-13T10:55:17.335Z,56.26
2018-08-13T10:57:45.489Z,56.45
2018-08-13T11:00:15.559Z,57.01
2018-08-13T11:02:43.812Z,57.30
2018-08-13T11:05:12.994Z,59.46
2018-08-13T11:07:41.894Z,59.21
2018-08-13T11:10:13.133Z,60.76
2018-08-13T11:12:41.474Z,59.77
2018-08-13T11:15:16.751Z,59.83
2018-08-13T11:17:45.580Z,60.73
2018-08-13T11:20:14.057Z,60.11
2018-08-13T11:22:42.645Z,60.15
2018-08-13T11:25:13.477Z,61.47
2018-08-13T11:27:42.119Z,61.86
2018-08-13T11:30:13.924Z,60.84
2018-08-13T11:32:42.497Z,59.44
2018-08-13T11:35:11.329Z,62.20
2018-08-13T11:37:40.272Z,61.92
2018-08-13T11:40:13.791Z,62.21
2018-08-13T11:42:42.928Z,62.02
2018-08-13T11:45:11.110Z,60.67
2018-08-13T11:47:40.095Z,58.70
2018-08-13T11:50:14.344Z,57.73
2018-08-13T11:52:43.800Z,58.23
2018-08-13T11:55:11.962Z,55.88
2018-08-13T11:57:40.158Z,55.35
2018-08-13T12:00:10.853Z,55.31
2018-08-13T12:02:39.822Z,55.67
2018-08-13T12:05:11.064Z,54.69
2018-08-13T12:07:39.509Z,55.34
2018-08-13T12:10:10.281Z,56.09
2018-08-13T12:12:39.439Z,56.29
2018-08-13T12:15:08.928Z,56.78
2018-08-13T12:17:37.096Z,56.38
2018-08-13T12:20:16.784Z,56.04
2018-08-13T12:22:45.854Z,57.04
2018-08-13T12:25:22.092Z,58.03
2018-08-13T12:27:50.307Z,58.04
2018-08-13T12:30:18.959Z,58.87
2018-08-13T12:32:48.632Z,58.44
2018-08-13T12:35:17.374Z,56.62
2018-08-13T12:37:45.557Z,55.58
2018-08-13T12:40:13.748Z,55.13
2018-08-13T12:42:42.008Z,54.59
2018-08-13T12:45:13.199Z,55.25
2018-08-13T12:47:41.808Z,54.58
2018-08-13T12:50:17.354Z,54.75
2018-08-13T12:52:46.977Z,55.93
2018-08-13T12:55:15.679Z,56.12
2018-08-13T12:57:44.200Z,55.91
2018-08-13T13:00:14.441Z,56.53
2018-08-13T13:02:43.058Z,57.26
2018-08-13T13:05:13.316Z,57.28
2018-08-13T13:07:42.019Z,58.01
2018-08-13T13:10:12.838Z,59.03
2018-08-13T13:12:41.643Z,58.84
2018-08-13T13:15:13.500Z,58.92
2018-08-13T13:17:41.827Z,57.14
2018-08-13T13:20:14.146Z,55.73
2018-08-13T13:22:43.514Z,55.62
2018-08-13T13:25:11.691Z,53.20
2018-08-13T13:27:39.899Z,52.13
2018-08-13T13:30:11.314Z,48.78
2018-08-13T13:32:39.489Z,46.00
2018-08-13T13:35:10.196Z,45.21
2018-08-13T13:37:39.104Z,44.89
2018-08-13T13:40:10.269Z,43.24
2018-08-13T13:42:38.805Z,42.55
2018-08-13T13:45:07.837Z,42.86
2018-08-13T13:47:36.415Z,42.40
2018-08-13T13:50:05.951Z,40.97
2018-08-13T13:52:34.374Z,40.33
2018-08-13T13:55:02.563Z,37.94
2018-08-13T13:57:31.201Z,35.71
2018-08-13T13:59:59.677Z,35.99
2018-08-13T14:02:27.816Z,38.18
2018-08-13T14:04:56.049Z,40.24
2018-08-13T14:07:26.112Z,40.83
2018-08-13T14:09:54.623Z,40.34
2018-08-13T14:12:23.423Z,40.63
2018-08-13T14:14:51.997Z,39.22
2018-08-13T14:17:20.530Z,40.77
2018-08-13T14:19:48.745Z,42.96
2018-08-13T14:22:17.381Z,43.66
2018-08-13T14:24:45.597Z,44.17
2018-08-13T14:27:13.841Z,45.13
2018-08-13T14:29:42.692Z,47.51
2018-08-13T14:32:10.948Z,49.15
2018-08-13T14:34:39.147Z,50.49
2018-08-13T14:37:08.017Z,50.69
2018-08-13T14:39:36.517Z,51.34
2018-08-13T14:42:05.090Z,52.74
2018-08-13T14:44:33.903Z,55.19
2018-08-13T14:47:02.502Z,60.54
2018-08-13T14:49:30.677Z,66.54
2018-08-13T14:51:59.111Z,71.67
2018-08-13T14:54:27.368Z,73.25
2018-08-13T14:56:55.842Z,74.00
2018-08-13T14:59:23.987Z,74.18
2018-08-13T15:01:52.266Z,70.14
2018-08-13T15:04:20.472Z,63.39
2018-08-13T15:06:49.074Z,60.50
2018-08-13T15:09:17.723Z,59.10
2018-08-13T15:11:46.068Z,54.74
2018-08-13T15:14:14.833Z,48.74
2018-08-13T15:16:43.327Z,47.92
2018-08-13T15:19:11.870Z,46.95
2018-08-13T15:21:40.381Z,49.80
2018-08-13T15:24:08.627Z,52.42
2018-08-13T15:26:36.916Z,57.15
2018-08-13T15:29:05.645Z,59.04
2018-08-13T15:31:34.101Z,56.70
2018-08-13T15:34:02.308Z,51.43
2018-08-13T15:36:30.523Z,46.62
2018-08-13T15:38:58.746Z,44.10
2018-08-13T15:41:26.928Z,41.82
2018-08-13T15:43:55.109Z,41.94
2018-08-13T15:46:24.774Z,40.16
2018-08-13T15:48:53.242Z,42.41
2018-08-13T15:51:21.936Z,46.75
2018-08-13T15:53:51.269Z,49.91
2018-08-13T15:56:19.811Z,54.25
2018-08-13T15:58:48.136Z,55.53
2018-08-13T16:01:16.280Z,58.73
2018-08-13T16:03:44.516Z,60.37
2018-08-13T16:06:12.692Z,61.90
2018-08-13T16:08:40.980Z,63.23
2018-08-13T16:11:09.195Z,65.24
2018-08-13T16:13:37.361Z,65.51
2018-08-13T16:16:05.867Z,67.20
2018-08-13T16:18:34.081Z,67.96
2018-08-13T16:21:02.369Z,67.78
2018-08-13T16:23:30.871Z,68.68
2018-08-13T16:25:59.421Z,70.11
2018-08-13T16:28:28.169Z,70.00
2018-08-13T16:30:57.062Z,69.21
2018-08-13T16:33:25.295Z,68.64
2018-08-13T16:35:53.473Z,71.31
2018-08-13T16:38:22.217Z,72.18
2018-08-13T16:40:51.149Z,72.45
2018-08-13T16:43:20.087Z,70.83
2018-08-13T16:45:48.699Z,72.13
2018-08-13T16:48:17.316Z,71.79
2018-08-13T16:50:45.569Z,71.78
2018-08-13T16:53:13.848Z,70.01
2018-08-13T16:55:42.383Z,69.65
2018-08-13T16:58:10.612Z,68.63
2018-08-13T17:00:38.800Z,68.21
2018-08-13T17:03:07.286Z,69.05
2018-08-13T17:05:35.482Z,67.06
2018-08-13T17:08:04.609Z,62.12
2018-08-13T17:10:32.766Z,59.02
2018-08-13T17:13:01.315Z,51.51
2018-08-13T17:15:31.553Z,44.42
2018-08-13T17:18:01.859Z,41.16
2018-08-13T17:20:35.373Z,43.77
2018-08-13T17:23:03.879Z,43.55
2018-08-13T17:25:32.112Z,40.94
2018-08-13T17:28:00.941Z,39.61
2018-08-13T17:30:29.202Z,41.75
2018-08-13T17:32:59.368Z,44.79
2018-08-13T17:35:31.416Z,49.97
2018-08-13T17:38:01.274Z,53.37
2018-08-13T17:40:31.343Z,56.97
2018-08-13T17:42:59.760Z,59.14
2018-08-13T17:45:27.801Z,59.69
2018-08-13T17:47:56.210Z,61.17
2018-08-13T17:50:25.384Z,61.94
2018-08-13T17:52:53.842Z,63.94
2018-08-13T17:55:22.685Z,65.50
2018-08-13T17:57:51.531Z,65.51
2018-08-13T18:00:23.801Z,66.19
2018-08-13T18:02:52.824Z,67.05
2018-08-13T18:05:23.549Z,67.70
2018-08-13T18:07:52.944Z,67.99
2018-08-13T18:10:31.802Z,69.35
2018-08-13T18:13:02.421Z,70.65
2018-08-13T18:15:31.288Z,71.22
2018-08-13T18:18:00.635Z,71.47
2018-08-13T18:20:29.252Z,72.02
2018-08-13T18:22:58.794Z,72.27
2018-08-13T18:25:27.385Z,72.09
2018-08-13T18:27:56.277Z,72.81
2018-08-13T18:30:27.318Z,72.82
2018-08-13T18:32:56.479Z,71.70
2018-08-13T18:35:24.884Z,73.21
2018-08-13T18:37:53.740Z,72.36
2018-08-13T18:40:26.920Z,73.06
2018-08-13T18:42:55.130Z,72.82
2018-08-13T18:45:23.594Z,73.13
2018-08-13T18:47:52.362Z,73.61
2018-08-13T18:50:21.968Z,74.11
2018-08-13T18:52:50.342Z,74.37
2018-08-13T18:55:21.032Z,73.71
2018-08-13T18:57:49.750Z,74.77
2018-08-13T19:00:22.282Z,74.37
2018-08-13T19:02:50.819Z,73.80
2018-08-13T19:05:20.326Z,73.57
2018-08-13T19:07:49.588Z,74.29
2018-08-13T19:10:19.350Z,73.20
2018-08-13T19:12:47.773Z,73.38
2018-08-13T19:15:19.796Z,74.22
2018-08-13T19:17:48.732Z,74.39
2018-08-13T19:20:16.969Z,75.02
2018-08-13T19:22:45.612Z,74.49
2018-08-13T19:25:20.750Z,74.69
2018-08-13T19:27:49.210Z,74.56
2018-08-13T19:30:18.489Z,75.67
2018-08-13T19:32:47.914Z,75.91
2018-08-13T19:35:16.334Z,76.33
2018-08-13T19:37:44.914Z,75.67
2018-08-13T19:40:17.676Z,75.86
2018-08-13T19:42:46.704Z,75.25
2018-08-13T19:45:16.585Z,75.70
2018-08-13T19:47:45.731Z,76.63
2018-08-13T19:50:14.435Z,76.84
2018-08-13T19:52:43.903Z,76.63
2018-08-13T19:55:12.774Z,76.61
2018-08-13T19:57:41.564Z,75.96
2018-08-13T20:00:15.855Z,75.97
2018-08-13T20:02:44.636Z,75.85
2018-08-13T20:05:13.001Z,74.92
2018-08-13T20:07:41.598Z,75.72
2018-08-13T20:10:11.874Z,75.96
2018-08-13T20:12:40.374Z,76.17
2018-08-13T20:15:09.386Z,76.34
2018-08-13T20:17:37.860Z,75.97
2018-08-13T20:20:09.150Z,76.23
2018-08-13T20:22:37.904Z,77.04
2018-08-13T20:25:07.759Z,77.04
2018-08-13T20:27:36.174Z,76.83
2018-08-13T20:30:07.120Z,76.97
2018-08-13T20:32:35.335Z,76.65
2018-08-13T20:35:03.744Z,77.41
2018-08-13T20:37:32.287Z,77.69
2018-08-13T20:40:00.603Z,78.07
2018-08-13T20:42:29.197Z,77.97
2018-08-13T20:44:57.418Z,77.10
2018-08-13T20:47:26.008Z,77.70
2018-08-13T20:49:54.221Z,78.36
2018-08-13T20:52:22.732Z,78.17
2018-08-13T20:54:51.249Z,78.66
2018-08-13T20:57:19.619Z,78.22
2018-08-13T20:59:48.102Z,77.68
2018-08-13T21:02:16.607Z,78.39
2018-08-13T21:04:44.835Z,77.82
2018-08-13T21:07:13.093Z,78.04
2018-08-13T21:09:41.568Z,77.55
2018-08-13T21:12:12.334Z,78.69
2018-08-13T21:14:41.009Z,77.98
2018-08-13T21:17:09.509Z,77.01
2018-08-13T21:19:37.942Z,76.90
2018-08-13T21:22:06.664Z,76.51
2018-08-13T21:24:38.820Z,76.70
2018-08-13T21:27:10.120Z,76.64
2018-08-13T21:29:38.616Z,76.39
2018-08-13T21:32:07.149Z,77.11
2018-08-13T21:34:35.405Z,77.66
2018-08-13T21:37:03.632Z,77.78
2018-08-13T21:39:31.945Z,77.50
2018-08-13T21:42:00.407Z,77.73
2018-08-13T21:44:28.585Z,77.69
2018-08-13T21:46:57.123Z,77.76
2018-08-13T21:49:25.302Z,77.61
2018-08-13T21:51:53.483Z,77.34
2018-08-13T21:54:21.627Z,77.03
2018-08-13T21:56:49.826Z,77.17
2018-08-13T21:59:18.330Z,75.92
2018-08-13T22:01:47.741Z,76.60
2018-08-13T22:04:17.211Z,75.49
2018-08-13T22:06:45.501Z,76.05
2018-08-13T22:09:13.690Z,76.36
2018-08-13T22:11:42.243Z,75.81
2018-08-13T22:14:10.544Z,76.43
2018-08-13T22:16:38.757Z,76.70
2018-08-13T22:19:07.994Z,76.51
2018-08-13T22:21:36.202Z,76.25
2018-08-13T22:24:21.682Z,76.23
2018-08-13T22:26:50.275Z,76.18
2018-08-13T22:29:18.560Z,76.01
2018-08-13T22:31:46.891Z,76.24
2018-08-13T22:34:15.090Z,76.19
2018-08-13T22:36:43.674Z,76.50
2018-08-13T22:39:11.897Z,76.91
2018-08-13T22:41:40.097Z,76.99
2018-08-13T22:44:08.313Z,77.90
2018-08-13T22:46:36.584Z,77.92
2018-08-13T22:49:04.940Z,78.54
2018-08-13T22:51:33.924Z,78.67
2018-08-13T22:54:02.280Z,79.41
2018-08-13T22:56:30.619Z,79.18
2018-08-13T22:58:59.384Z,79.31
2018-08-13T23:01:27.892Z,79.69
2018-08-13T23:03:56.497Z,79.56
2018-08-13T23:06:24.704Z,79.88
2018-08-13T23:08:52.975Z,79.58
2018-08-13T23:11:21.251Z,79.30
2018-08-13T23:13:49.647Z,79.67
2018-08-13T23:16:18.209Z,79.88
2018-08-13T23:18:46.507Z,79.93
2018-08-13T23:21:15.048Z,79.59
2018-08-13T23:23:43.660Z,80.05
2018-08-13T23:26:11.945Z,80.20
2018-08-13T23:28:41.325Z,79.89
2018-08-13T23:31:09.569Z,79.41
2018-08-13T23:33:38.204Z,79.36
2018-08-13T23:36:07.746Z,79.44
2018-08-13T23:38:36.008Z,79.47
2018-08-13T23:41:04.606Z,78.58
2018-08-13T23:43:33.275Z,79.52
2018-08-13T23:46:01.482Z,78.17
2018-08-13T23:48:30.898Z,77.88
2018-08-13T23:50:59.066Z,78.40
2018-08-13T23:53:27.305Z,78.36
2018-08-13T23:55:55.524Z,78.00
2018-08-13T23:58:23.761Z,78.24
